ADDS METAR Data INFO
IDs: Format: Raw Decoded Include TAF

Data at: 0024 UTC 23 Oct 2017

PAIG 222356Z AUTO 17018G21KT 10SM FEW023 01/M03 A2953 RMK AO2 SNE00 SLP012 P0000 60000 T00111033 10011 21072 53009 FZRANO $
PAIG 222339Z AUTO 18013G19KT 10SM SCT016 01/M03 A2953 RMK AO2 SNE00 P0000 FZRANO $
PAIG 222256Z AUTO 14011KT 9SM -SN FEW013 BKN021 OVC029 00/M02 A2952 RMK AO2 RAB31E33SNB33 SLP008 P0000 T00001017 FZRANO $
PAIG 222156Z AUTO 16011KT 10SM OVC024 01/M04 A2951 RMK AO2 SLP006 T00061039 FZRANO $
PAIG 222056Z AUTO 11005KT 10SM BKN025 OVC080 M01/M04 A2951 RMK AO2 SLP003 T10061039 50008 FZRANO $
PAIG 222053Z AUTO 12006KT 10SM BKN025 OVC080 M01/M04 A2951 RMK AO2 FZRANO $
PAIG 221956Z AUTO 05003KT 10SM FEW043 M03/M05 A2949 RMK AO2 SLP996 T10331050 FZRANO $
PAIG 221856Z AUTO 00000KT 10SM CLR M06/M07 A2948 RMK AO2 SLP994 T10611072 FZRANO $
PAIG 221756Z AUTO 00000KT 10SM FEW002 M07/M08 A2946 RMK AO2 SLP987 T10721083 11061 21089 51014 FZRANO $
PAIG 221747Z AUTO 27003KT 1 1/4SM BR FEW002 M07/M08 A2946 RMK AO2 FZRANO $
PAIG 221739Z AUTO 00000KT 3/4SM BR VV002 M07/M08 A2946 RMK AO2 FZRANO $
PAIG 221737Z AUTO 00000KT 1 1/4SM BR FEW002 M07/M08 A2945 RMK AO2 FZRANO $
PAIG 221656Z AUTO 00000KT 10SM CLR M09/M09 A2944 RMK AO2 SLP981 T10891094 FZRANO $
PAIG 221556Z AUTO 21004KT 10SM CLR M08/M09 A2942 RMK AO2 SLP974 T10831094 FZRANO $
PAIG 221456Z AUTO 19006KT 10SM CLR M08/M09 A2941 RMK AO2 SLP968 T10831094 53017 FZRANO $
PAIG 221356Z AUTO 19006KT 10SM CLR M09/M10 A2938 RMK AO2 SLP960 T10891100 FZRANO $
PAIG 221256Z AUTO 21004KT 10SM BKN035 M07/M08 A2937 RMK AO2 SLP956 T10721083 FZRANO $
PAIG 221156Z AUTO 21005KT 10SM BKN039 BKN090 M06/M08 A2935 RMK AO2 SLP951 T10611083 11022 21067 53017 FZRANO $
PAIG 221056Z AUTO 20005KT 10SM BKN095 M07/M08 A2934 RMK AO2 SLP945 T10671083 FZRANO $
PAIG 220956Z AUTO 29003KT 10SM BKN100 BKN120 M04/M08 A2931 RMK AO2 SLP937 T10441083 FZRANO $
PAIG 220856Z AUTO 30005KT 10SM BKN120 M04/M08 A2931 RMK AO2 SLP935 T10391078 400221106 53013 FZRANO $
PAIG 220756Z AUTO 31004KT 10SM SCT095 M04/M07 A2929 RMK AO2 SLP928 T10391072 FZRANO $
PAIG 220656Z AUTO 31006KT 10SM BKN034 OVC110 M03/M07 A2928 RMK AO2 SLP925 T10331072 FZRANO $
PAIG 220556Z AUTO 33004KT 10SM OVC034 M02/M06 A2927 RMK AO2 SLP922 T10171061 10022 21022 51004 FZRANO $
PAIG 220456Z AUTO 32005KT 10SM BKN038 M02/M07 A2926 RMK AO2 SLP920 T10221067 FZRANO $
PAIG 220356Z AUTO 30004KT 10SM BKN038 M02/M06 A2926 RMK AO2 SLP920 T10171061 FZRANO $
PAIG 220256Z AUTO 30004KT 10SM BKN036 M01/M06 A2926 RMK AO2 SLP918 T10061061 56003 FZRANO $
PAIG 220156Z AUTO 01004KT 10SM BKN040 01/M07 A2926 RMK AO2 SLP917 T00061067 FZRANO $
PAIG 220056Z AUTO 00000KT 10SM BKN035 02/M06 A2926 RMK AO2 SLP919 T00171061 FZRANO $
PAIG 212356Z AUTO 02003KT 10SM CLR 01/M06 A2926 RMK AO2 SLP921 T00111061 10017 21100 58008 FZRANO $
PAIG 212256Z AUTO 03004KT 10SM CLR 01/M07 A2927 RMK AO2 SLP924 T00111067 FZRANO $
PAIG 212156Z AUTO VRB03KT 10SM CLR 01/M06 A2928 RMK AO2 SLP927 T00061061 FZRANO $
PAIG 212056Z AUTO 00000KT 10SM CLR M02/M05 A2929 RMK AO2 SLP929 T10171050 58001 FZRANO $
PAIG 211956Z AUTO 00000KT 10SM CLR M04/M06 A2929 RMK AO2 SLP930 T10441056 FZRANO $
PAIG 211908Z AUTO 21003KT 10SM FEW021 SCT026 M07/M08 A2930 RMK AO2 FZRANO $
PAIG 211856Z AUTO 20004KT 10SM BKN026 M07/M09 A2930 RMK AO2 SLP933 T10721089 FZRANO $
PAIG 211839Z AUTO 17004KT 10SM BKN026 M08/M09 A2930 RMK AO2 FZRANO $
PAIG 211756Z AUTO 17004KT 10SM CLR M09/M11 A2929 RMK AO2 SLP930 T10941111 11067 21106 50000 FZRANO $
PAIG 211656Z AUTO 18005KT 10SM CLR M11/M12 A2930 RMK AO2 SLP931 T11061117 FZRANO $
PAIG 211556Z AUTO 15006KT 10SM CLR M11/M12 A2929 RMK AO2 SLP930 T11061117 FZRANO $
PAIG 211456Z AUTO 17007KT 10SM FEW012 M11/M12 A2929 RMK AO2 SLP930 T11061117 55001 FZRANO $
PAIG 211356Z AUTO 00000KT 10SM SCT014 M08/M09 A2929 RMK AO2 SLP929 T10781089 FZRANO $
PAIG 211353Z AUTO 00000KT 10SM SCT014 M08/M09 A2929 RMK AO2 FZRANO $
PAIG 211337Z AUTO 25003KT 10SM BKN014 M07/M09 A2929 RMK AO2 FZRANO $
PAIG 211256Z AUTO 21005KT 10SM CLR M09/M11 A2929 RMK AO2 SLP930 T10941106 FZRANO $